Flight Track Log - Related Links

Times and Time Zones

All times are in EDT time to prevent confusion due to time zone crossing. See the N27XP flight status page for this flight to view local times or setup timezone preferences in your user account.

Time Position Orientation Groundspeed Altitude Reporting Facility
EDT Latitude Longitude Course Direction KTS MPH feet Rate Location/Type
Fri 04:01:00 PM 36.2871 -79.8609 176° South  Level Estimated
Fri 04:02:00 PM 36.2292 -79.8851 199° South  Level FlightAware Approximate
Fri 04:03:00 PM 36.1714 -79.9092 199° South  Level FlightAware Approximate
Fri 04:04:00 PM 36.1135 -79.9333 199° South  Level FlightAware Approximate
Fri 04:05:00 PM 36.0591 -79.8991 159° South  Level Estimated
Fri 04:06:00 PM 36.0001 -79.8798 165° South  Level FlightAware Approximate
Fri 04:07:00 PM 35.9411 -79.8605 165° South  Level FlightAware Approximate
Fri 04:08:00 PM 35.8821 -79.8412 165° South  Level FlightAware Approximate
Fri 04:09:00 PM 35.8230 -79.8220 165° South  Level FlightAware Approximate
Fri 04:10:00 PM 35.7640 -79.8028 165° South  Level FlightAware Approximate
Fri 04:11:00 PM 35.7050 -79.7836 165° South  Level FlightAware Approximate
Fri 04:12:00 PM 35.6460 -79.7644 165° South  Level FlightAware Approximate
Fri 04:12:55 PM 35.3103 -79.5450 175° South 278 320 4,000  Level Washington Center
Fri 04:13:00 PM 35.5869 -79.7453 165° South  Level FlightAware Approximate
Fri 04:14:00 PM 35.5401 -79.6973 161° South  Level Estimated
Fri 04:14:00 PM 35.2775 -79.4747 180° South  Level Estimated
Fri 04:15:00 PM 35.4793 -79.6893 174° South  Level FlightAware Approximate
Fri 04:16:00 PM 35.4365 -79.6359 161° South  Level Estimated
Fri 04:17:00 PM 35.3757 -79.6290 175° South  Level FlightAware Approximate
Fri 04:18:00 PM 35.3149 -79.6221 175° South  Level FlightAware Approximate
Fri 04:21:00 PM 35.2333 -79.3833 76° East  Level FlightAware Approximate
Fri 04:22:00 PM 35.2374 -79.3890 321° Northwest  Level Estimated

Login

Don't have an account? Register now (free) for customized features, flight alerts, and more!